Time;durP1;ratioP1;P1;durP2;ratioP2;P2;SDS_P1;SDS_P2;PMS_P1;PMS_P2;Temp;Humidity;BMP_temperature;BMP_pressure;BME280_temperature;BME280_humidity;BME280_pressure;Samples;Min_cycle;Max_cycle;Signal;HPM_P1;HPM_P2
2023/01/05 00:01:11;;;;;;;4.57;1.57;;;;;;;13.36;69.23;100696.94;4906878;28;97379;-51
2023/01/05 00:03:37;;;;;;;4.27;1.27;;;;;;;13.40;69.03;100700.16;4908009;28;97130;-51
2023/01/05 00:06:12;;;;;;;5.53;1.20;;;;;;;13.40;68.80;100702.94;4907338;28;97753;-52
2023/01/05 00:08:38;;;;;;;7.30;1.63;;;;;;;13.40;69.03;100694.63;4905194;28;98466;-50
2023/01/05 00:22:29;;;;;;;7.03;1.33;;;;;;;13.35;69.16;100703.69;4907469;28;97474;-52
2023/01/05 00:25:12;;;;;;;6.13;1.80;;;;;;;13.31;69.20;100705.97;4906442;28;97492;-52
2023/01/05 00:27:38;;;;;;;5.90;1.23;;;;;;;13.30;69.18;100715.53;4902221;28;102561;-51
2023/01/05 00:30:05;;;;;;;5.27;1.40;;;;;;;13.31;69.33;100702.47;4908050;28;96788;-51
2023/01/05 00:32:31;;;;;;;6.37;1.67;;;;;;;13.32;69.62;100712.28;4906828;28;96789;-51
2023/01/05 00:34:57;;;;;;;3.27;1.07;;;;;;;13.34;69.56;100718.03;4907141;28;97071;-51
2023/01/05 00:37:24;;;;;;;5.60;1.37;;;;;;;13.33;69.37;100716.50;4906487;28;98117;-50
2023/01/05 00:39:50;;;;;;;5.03;1.50;;;;;;;13.31;69.43;100705.22;4906086;28;97347;-52
2023/01/05 00:42:16;;;;;;;6.63;1.30;;;;;;;13.29;69.67;100710.50;4906394;28;104677;-51
2023/01/05 00:44:42;;;;;;;8.90;1.87;;;;;;;13.29;69.60;100714.03;4906225;28;97107;-52
2023/01/05 00:47:07;;;;;;;9.57;1.73;;;;;;;13.23;69.82;100707.78;4905314;28;97345;-52
2023/01/05 00:49:32;;;;;;;8.93;2.07;;;;;;;13.17;69.93;100709.78;4906301;28;97342;-52
2023/01/05 00:51:58;;;;;;;8.20;2.17;;;;;;;13.12;70.01;100721.63;4906075;28;97389;-53
2023/01/05 00:54:23;;;;;;;3.03;1.20;;;;;;;13.09;70.26;100730.94;4907171;28;97522;-52
2023/01/05 00:56:48;;;;;;;4.53;1.37;;;;;;;13.10;70.27;100740.72;4906650;28;96987;-52
2023/01/05 00:59:15;;;;;;;7.20;1.57;;;;;;;13.06;70.17;100734.69;4907183;28;97304;-52
2023/01/05 01:01:41;;;;;;;4.60;1.20;;;;;;;13.04;70.25;100728.91;4906036;28;97312;-52
2023/01/05 01:04:06;;;;;;;8.37;1.10;;;;;;;13.04;70.25;100728.91;4899987;28;96903;-52
2023/01/05 01:06:31;;;;;;;5.07;1.40;;;;;;;13.00;70.23;100745.00;4907468;28;96794;-52
2023/01/05 01:08:58;;;;;;;5.90;1.60;;;;;;;12.96;70.43;100740.97;4906313;28;97058;-52
2023/01/05 01:11:23;;;;;;;8.50;1.93;;;;;;;12.97;70.50;100737.72;4906973;28;97295;-52
2023/01/05 01:13:48;;;;;;;4.90;1.40;;;;;;;12.98;70.52;100727.41;4906937;28;97188;-51
2023/01/05 01:16:15;;;;;;;6.60;1.53;;;;;;;12.97;70.31;100734.97;4905492;28;96773;-52
2023/01/05 01:18:41;;;;;;;6.03;1.57;;;;;;;12.96;70.31;100741.75;4905931;28;97363;-52
2023/01/05 01:21:07;;;;;;;7.30;2.20;;;;;;;12.93;70.34;100734.47;4904242;28;97419;-51
2023/01/05 01:23:33;;;;;;;10.80;1.67;;;;;;;12.91;70.30;100734.22;4907169;28;97020;-52
2023/01/05 01:26:02;;;;;;;5.17;1.43;;;;;;;12.90;70.46;100738.25;4906273;28;97395;-52
2023/01/05 01:28:27;;;;;;;7.20;1.40;;;;;;;12.91;70.49;100734.22;4905172;28;97310;-51
2023/01/05 01:30:53;;;;;;;5.17;1.50;;;;;;;12.91;70.69;100739.72;4907734;28;97140;-52
2023/01/05 01:33:18;;;;;;;5.40;1.63;;;;;;;12.91;70.44;100739.72;4907007;28;97675;-51
2023/01/05 01:35:43;;;;;;;9.37;1.93;;;;;;;12.89;70.54;100733.97;4905279;28;97736;-52
2023/01/05 01:38:09;;;;;;;5.30;1.60;;;;;;;12.89;70.52;100742.25;4905741;28;97527;-52
2023/01/05 01:40:43;;;;;;;5.03;1.33;;;;;;;12.93;70.49;100747.53;4906076;28;96971;-52
2023/01/05 01:43:17;;;;;;;5.60;1.50;;;;;;;12.94;70.37;100749.78;4905688;28;97849;-52
2023/01/05 01:45:43;;;;;;;6.83;1.70;;;;;;;12.94;70.52;100749.78;4905567;28;102702;-53
2023/01/05 01:48:11;;;;;;;6.43;1.83;;;;;;;12.94;70.57;100744.25;4907735;28;97226;-52
2023/01/05 01:50:55;;;;;;;6.10;1.43;;;;;;;12.95;70.46;100750.53;4906611;28;97084;-52
2023/01/05 01:53:31;;;;;;;4.87;1.30;;;;;;;12.93;70.63;100759.31;4905863;28;97203;-52
2023/01/05 01:55:59;;;;;;;9.20;1.30;;;;;;;12.88;70.46;100762.09;4905861;28;98057;-52
2023/01/05 01:58:28;;;;;;;3.90;0.80;;;;;;;12.89;70.46;100764.34;4904266;28;96933;-52
2023/01/05 02:00:55;;;;;;;4.67;1.23;;;;;;;12.92;70.67;100770.88;4906311;28;97321;-52
2023/01/05 02:03:20;;;;;;;2.53;1.03;;;;;;;12.91;70.55;100789.44;4905391;28;97160;-52
2023/01/05 02:05:45;;;;;;;10.43;1.60;;;;;;;12.94;70.54;100776.63;4904534;28;97335;-50
2023/01/05 02:08:13;;;;;;;3.70;1.37;;;;;;;12.92;70.50;100777.16;4905486;28;96953;-51
2023/01/05 02:10:56;;;;;;;6.50;1.73;;;;;;;12.93;70.55;100770.34;4906026;28;97205;-52
2023/01/05 02:13:59;;;;;;;4.03;1.20;;;;;;;12.93;70.61;100766.88;4905671;28;96983;-51
2023/01/05 02:16:52;;;;;;;3.80;1.27;;;;;;;12.88;70.62;100773.91;4903888;28;100397;-51
2023/01/05 02:19:31;;;;;;;3.70;1.37;;;;;;;12.90;70.49;100765.88;4904833;28;101632;-52
2023/01/05 02:22:05;;;;;;;5.67;1.20;;;;;;;12.88;70.67;100762.84;4903759;28;96818;-51
2023/01/05 02:24:41;;;;;;;2.73;0.93;;;;;;;12.88;70.57;100768.38;4905022;28;96743;-51
2023/01/05 02:27:25;;;;;;;1.53;1.07;;;;;;;12.91;70.73;100766.63;4904387;28;97172;-51
2023/01/05 02:30:09;;;;;;;3.63;1.00;;;;;;;12.91;70.74;100767.34;4905681;28;100253;-54
2023/01/05 02:33:15;;;;;;;3.23;1.10;;;;;;;12.91;70.72;100766.63;4904382;28;97167;-52
2023/01/05 02:35:51;;;;;;;4.47;1.40;;;;;;;12.95;70.26;100770.63;4868883;28;96903;-51
2023/01/05 02:38:45;;;;;;;7.87;1.30;;;;;;;12.94;70.55;100766.34;4893013;28;97300;-53
2023/01/05 02:41:31;;;;;;;3.67;0.90;;;;;;;12.93;70.38;100758.59;4904793;28;100847;-51
2023/01/05 02:43:57;;;;;;;3.53;1.03;;;;;;;12.95;70.44;100764.34;4904503;28;97366;-50
2023/01/05 02:46:22;;;;;;;6.13;1.20;;;;;;;12.93;70.51;100764.84;4903610;28;97349;-51
2023/01/05 02:48:53;;;;;;;2.83;1.10;;;;;;;12.93;70.58;100764.09;4905221;28;98036;-51
2023/01/05 02:51:24;;;;;;;3.90;1.10;;;;;;;12.93;70.47;100759.31;4904884;28;97251;-51
2023/01/05 02:54:01;;;;;;;2.10;1.10;;;;;;;12.94;70.33;100771.13;4903545;28;104068;-51
2023/01/05 02:56:45;;;;;;;3.87;1.30;;;;;;;12.95;70.21;100767.88;4905484;28;97060;-52
2023/01/05 02:59:20;;;;;;;5.13;1.13;;;;;;;12.92;70.42;100781.91;4904990;28;101383;-52
2023/01/05 03:01:53;;;;;;;2.73;0.83;;;;;;;12.92;70.50;100779.16;4903868;28;101701;-51
2023/01/05 03:04:23;;;;;;;4.63;1.07;;;;;;;12.94;70.52;100782.91;4905597;28;96969;-51
2023/01/05 03:06:56;;;;;;;8.37;1.20;;;;;;;12.96;70.38;100783.16;4907323;28;96911;-52
2023/01/05 03:09:26;;;;;;;2.50;1.13;;;;;;;12.97;70.15;100798.50;4908076;28;101905;-51
2023/01/05 03:14:56;;;;;;;4.57;0.80;;;;;;;12.91;70.44;100789.44;4908351;28;96860;-51
2023/01/05 03:17:44;;;;;;;6.80;1.00;;;;;;;12.91;70.84;100786.69;4908719;28;97494;-52
2023/01/05 03:20:13;;;;;;;4.23;1.03;;;;;;;12.94;70.52;100782.16;4908264;28;101848;-51
2023/01/05 03:37:00;;;;;;;3.70;0.80;;;;;;;12.83;70.54;100805.03;4907070;28;96610;-51
2023/01/05 03:39:28;;;;;;;4.97;1.43;;;;;;;12.82;70.63;100803.50;4908950;28;96794;-51
2023/01/05 03:41:55;;;;;;;3.47;1.13;;;;;;;12.81;70.64;100799.25;4907865;28;96779;-51
2023/01/05 03:44:21;;;;;;;3.40;1.37;;;;;;;12.80;70.59;100804.03;4906531;28;97122;-51
2023/01/05 03:46:47;;;;;;;2.60;0.80;;;;;;;12.81;70.81;100799.25;4908157;28;97039;-57
2023/01/05 03:49:12;;;;;;;3.97;1.30;;;;;;;12.81;70.64;100810.31;4906857;28;96659;-51
2023/01/05 03:51:38;;;;;;;5.33;1.50;;;;;;;12.82;70.53;100811.06;4905430;28;97029;-51
2023/01/05 03:54:03;;;;;;;12.13;1.67;;;;;;;12.85;70.51;100819.06;4908615;28;97223;-51
2023/01/05 03:56:29;;;;;;;4.47;1.43;;;;;;;12.82;70.47;100806.25;4895515;28;97096;-55
2023/01/05 03:58:54;;;;;;;8.93;1.10;;;;;;;12.84;70.55;100823.09;4908682;28;97289;-51
2023/01/05 04:01:19;;;;;;;3.03;1.10;;;;;;;12.85;70.50;100821.84;4906170;28;96951;-51
2023/01/05 04:03:45;;;;;;;8.43;1.77;;;;;;;12.85;70.48;100812.78;4906408;28;97336;-51
2023/01/05 04:06:10;;;;;;;5.47;1.60;;;;;;;12.83;70.43;100821.59;4908038;28;97073;-52
2023/01/05 04:08:35;;;;;;;8.47;2.20;;;;;;;12.82;70.41;100825.59;4908051;28;97334;-53
2023/01/05 04:11:16;;;;;;;4.80;1.40;;;;;;;12.80;70.65;100830.88;4907722;28;96849;-52
2023/01/05 04:13:41;;;;;;;4.63;1.57;;;;;;;12.82;70.48;100831.88;4907186;28;96643;-51
2023/01/05 04:16:07;;;;;;;8.87;1.80;;;;;;;12.84;70.38;100839.66;4903256;28;96908;-52
2023/01/05 04:18:33;;;;;;;4.87;1.10;;;;;;;12.86;70.38;100836.41;4904906;28;96820;-53
2023/01/05 04:20:58;;;;;;;8.83;1.97;;;;;;;12.83;70.44;100840.91;4906702;28;97231;-51
2023/01/05 04:23:24;;;;;;;11.03;1.90;;;;;;;12.82;70.30;100839.41;4907884;28;96936;-51
2023/01/05 04:25:49;;;;;;;5.70;1.67;;;;;;;12.81;70.38;100846.19;4905318;28;97724;-53
2023/01/05 04:28:14;;;;;;;12.03;2.60;;;;;;;12.85;70.02;100849.44;4906385;28;96867;-51
2023/01/05 04:30:43;;;;;;;7.90;2.07;;;;;;;12.85;70.17;100843.16;4906129;28;97409;-53
2023/01/05 04:33:08;;;;;;;5.70;1.10;;;;;;;12.85;70.27;100845.94;4907586;28;97135;-51
2023/01/05 04:35:34;;;;;;;8.50;1.60;;;;;;;12.87;70.14;100854.47;4907590;28;97414;-51
2023/01/05 04:37:59;;;;;;;5.33;1.50;;;;;;;12.87;70.18;100860.75;4907101;28;97339;-51
2023/01/05 04:40:24;;;;;;;6.27;1.60;;;;;;;12.89;70.07;100857.50;4905378;28;97184;-52
2023/01/05 04:42:50;;;;;;;6.10;1.57;;;;;;;12.87;70.12;100849.69;4905846;28;96999;-52
2023/01/05 04:45:15;;;;;;;9.60;1.60;;;;;;;12.79;70.19;100860.50;4907999;28;97235;-52
2023/01/05 04:47:41;;;;;;;9.23;1.53;;;;;;;12.77;70.15;100857.50;4906645;28;96835;-51
2023/01/05 04:50:07;;;;;;;7.77;2.10;;;;;;;12.78;70.05;100866.50;4906324;28;97291;-51
2023/01/05 04:52:32;;;;;;;7.73;1.47;;;;;;;12.79;70.31;100865.28;4905276;28;97046;-53
2023/01/05 04:54:58;;;;;;;4.97;1.40;;;;;;;12.77;70.13;100868.53;4905984;28;97495;-50
2023/01/05 04:57:23;;;;;;;9.63;1.90;;;;;;;12.80;70.02;100880.56;4907892;28;97033;-52
2023/01/05 04:59:48;;;;;;;4.07;1.30;;;;;;;12.79;70.22;100863.28;4905297;28;97415;-54
2023/01/05 05:02:14;;;;;;;6.43;1.30;;;;;;;12.76;69.95;100872.53;4905867;28;97156;-51
2023/01/05 05:04:39;;;;;;;2.70;1.30;;;;;;;12.78;70.05;100877.56;4905060;28;96973;-51
2023/01/05 05:07:05;;;;;;;5.70;1.60;;;;;;;12.77;70.07;100898.91;4907302;28;97089;-52
2023/01/05 05:09:30;;;;;;;7.10;1.70;;;;;;;12.78;69.92;100885.84;4906812;28;97418;-51
2023/01/05 05:11:56;;;;;;;2.70;1.60;;;;;;;12.78;69.83;100883.06;4903097;28;96847;-51
2023/01/05 05:14:21;;;;;;;9.17;1.60;;;;;;;12.80;69.86;100894.38;4906254;28;97283;-51
2023/01/05 05:16:46;;;;;;;7.33;2.13;;;;;;;12.78;70.12;100881.06;4906456;28;97297;-50
2023/01/05 05:19:12;;;;;;;3.10;0.80;;;;;;;12.79;69.87;100893.63;4907759;28;97165;-50
2023/01/05 05:21:37;;;;;;;6.13;1.47;;;;;;;12.78;69.87;100883.84;4903572;28;97210;-53
2023/01/05 05:24:03;;;;;;;4.50;1.30;;;;;;;12.82;69.86;100892.63;4906134;28;97280;-51
2023/01/05 05:26:28;;;;;;;7.97;1.40;;;;;;;12.82;69.68;100889.09;4907205;28;96815;-54
2023/01/05 05:28:53;;;;;;;7.03;1.43;;;;;;;12.80;69.83;100897.88;4903590;28;96989;-53
2023/01/05 05:31:19;;;;;;;5.33;1.40;;;;;;;12.78;69.83;100891.34;4905478;28;97028;-52
2023/01/05 05:33:44;;;;;;;10.27;1.63;;;;;;;12.78;69.82;100902.41;4906465;28;97425;-51
2023/01/05 05:36:09;;;;;;;3.87;1.30;;;;;;;12.75;69.90;100906.19;4905782;28;97076;-51
2023/01/05 05:38:35;;;;;;;4.87;1.27;;;;;;;12.71;69.93;100914.69;4906675;28;97200;-53
2023/01/05 05:41:00;;;;;;;8.67;1.07;;;;;;;12.69;70.00;100910.94;4903394;28;100196;-52
2023/01/05 05:43:25;;;;;;;5.37;1.83;;;;;;;12.70;69.72;100913.19;4901605;28;97234;-51
2023/01/05 05:45:51;;;;;;;7.00;1.10;;;;;;;12.69;70.12;100927.47;4900924;28;97271;-51
2023/01/05 05:48:17;;;;;;;6.03;1.10;;;;;;;12.68;70.00;100926.75;4905742;28;97521;-51
2023/01/05 05:50:44;;;;;;;3.27;1.40;;;;;;;12.66;70.03;100939.53;4904966;28;97152;-56
2023/01/05 05:53:09;;;;;;;4.03;1.00;;;;;;;12.63;69.89;100929.50;4904645;28;96811;-53
2023/01/05 05:55:34;;;;;;;6.20;1.40;;;;;;;12.66;70.05;100928.50;4906658;28;97068;-53
2023/01/05 05:58:00;;;;;;;8.07;2.00;;;;;;;12.66;70.03;100928.50;4905783;28;97098;-54
2023/01/05 06:00:25;;;;;;;8.20;1.47;;;;;;;12.69;69.98;100935.75;4905616;28;97055;-52
2023/01/05 06:02:50;;;;;;;5.77;1.60;;;;;;;12.69;69.90;100944.06;4906777;28;97068;-53
2023/01/05 06:05:16;;;;;;;4.47;1.20;;;;;;;12.66;69.78;100939.53;4905579;28;97355;-51
2023/01/05 06:07:41;;;;;;;6.60;1.43;;;;;;;12.63;69.90;100941.28;4906202;28;97081;-50
2023/01/05 06:10:07;;;;;;;3.50;1.43;;;;;;;12.61;69.79;100949.31;4905583;28;97310;-52
2023/01/05 06:12:32;;;;;;;2.63;1.00;;;;;;;12.61;69.79;100948.56;4903722;28;97255;-52
2023/01/05 06:14:58;;;;;;;5.63;1.17;;;;;;;12.60;70.05;100958.84;4903693;28;96998;-51
2023/01/05 06:17:23;;;;;;;4.83;1.20;;;;;;;12.63;69.92;100946.06;4905387;28;97103;-53
2023/01/05 06:19:48;;;;;;;4.27;1.17;;;;;;;12.59;69.88;100951.81;4904382;28;97084;-51
2023/01/05 06:22:13;;;;;;;5.50;1.90;;;;;;;12.65;69.89;100955.34;4904582;28;96725;-51
2023/01/05 06:24:39;;;;;;;8.23;1.97;;;;;;;12.65;69.88;100965.63;4903825;28;97164;-53
2023/01/05 06:27:04;;;;;;;2.13;1.10;;;;;;;12.64;69.80;100967.66;4902724;28;97109;-51
2023/01/05 06:29:30;;;;;;;5.50;1.80;;;;;;;12.66;69.75;100976.19;4905268;28;96956;-51
2023/01/05 06:31:55;;;;;;;2.53;1.13;;;;;;;12.65;69.78;100979.44;4905793;28;98243;-55
2023/01/05 06:34:21;;;;;;;9.30;1.73;;;;;;;12.67;69.76;100990.72;4905420;28;97126;-50
2023/01/05 06:36:46;;;;;;;10.37;1.73;;;;;;;12.63;69.91;100979.94;4904998;28;96826;-51
2023/01/05 06:39:11;;;;;;;3.33;1.40;;;;;;;12.64;69.79;100984.22;4906153;28;97117;-52
2023/01/05 06:41:37;;;;;;;7.97;2.30;;;;;;;12.65;69.96;100998.75;4905861;28;97388;-51
2023/01/05 06:44:02;;;;;;;7.07;1.37;;;;;;;12.66;69.84;101001.03;4907970;28;97342;-52
2023/01/05 06:46:27;;;;;;;3.73;1.30;;;;;;;12.66;69.92;100995.50;4906255;28;97394;-52
2023/01/05 06:48:53;;;;;;;7.27;1.70;;;;;;;12.65;69.73;101004.28;4906644;28;97476;-51
2023/01/05 06:51:18;;;;;;;4.20;1.43;;;;;;;12.64;69.67;101008.31;4907606;28;97148;-51
2023/01/05 06:53:43;;;;;;;5.33;1.03;;;;;;;12.63;69.86;101012.28;4901683;28;97004;-52
2023/01/05 06:56:09;;;;;;;6.27;1.60;;;;;;;12.62;69.74;101016.31;4900431;28;96984;-51
2023/01/05 06:58:34;;;;;;;4.00;1.13;;;;;;;12.63;69.86;101015.81;4906823;28;97888;-51
2023/01/05 07:00:59;;;;;;;3.17;1.23;;;;;;;12.65;69.93;101023.59;4907242;28;97274;-51
2023/01/05 07:03:25;;;;;;;6.33;1.23;;;;;;;12.66;69.77;101027.88;4906086;28;96942;-51
2023/01/05 07:05:51;;;;;;;5.47;1.37;;;;;;;12.63;69.73;101028.84;4906554;28;97255;-52
2023/01/05 07:08:16;;;;;;;4.27;1.33;;;;;;;12.63;69.93;101031.63;4907635;28;97194;-51
2023/01/05 07:10:42;;;;;;;4.43;1.60;;;;;;;12.62;69.77;101038.41;4907734;28;97164;-50
2023/01/05 07:13:07;;;;;;;5.10;1.33;;;;;;;12.58;69.99;101051.69;4907426;28;97399;-52
2023/01/05 07:15:32;;;;;;;4.03;1.20;;;;;;;12.54;70.13;101054.69;4908753;28;98497;-52
2023/01/05 07:17:58;;;;;;;2.33;1.37;;;;;;;12.56;70.21;101045.88;4907041;28;97932;-52
2023/01/05 07:20:23;;;;;;;6.53;1.50;;;;;;;12.59;70.15;101058.72;4907718;28;96997;-51
2023/01/05 07:22:48;;;;;;;2.20;0.83;;;;;;;12.61;70.09;101056.22;4906768;28;97191;-51
2023/01/05 07:25:14;;;;;;;5.73;1.20;;;;;;;12.57;70.14;101059.22;4907599;28;97040;-52
2023/01/05 07:27:39;;;;;;;3.00;1.10;;;;;;;12.55;70.09;101056.19;4907159;28;97628;-53
2023/01/05 07:30:05;;;;;;;7.03;1.67;;;;;;;12.51;70.35;101050.16;4905413;28;97454;-51
2023/01/05 07:32:30;;;;;;;5.20;1.40;;;;;;;12.48;70.16;101066.94;4907805;28;96785;-52
2023/01/05 07:34:56;;;;;;;1.73;1.27;;;;;;;12.46;70.34;101074.97;4908370;28;97523;-52
2023/01/05 07:37:23;;;;;;;9.60;2.30;;;;;;;12.45;70.24;101074.19;4906192;28;97301;-51
2023/01/05 07:39:48;;;;;;;10.97;1.80;;;;;;;12.48;70.31;101075.22;4908040;28;96920;-51
2023/01/05 07:42:14;;;;;;;5.50;1.30;;;;;;;12.48;70.26;101075.97;4907099;28;97035;-52
2023/01/05 07:44:39;;;;;;;5.17;1.23;;;;;;;12.47;70.35;101093.03;4908102;28;97398;-51
2023/01/05 07:47:04;;;;;;;6.90;1.60;;;;;;;12.48;70.52;101094.53;4906593;28;97071;-51
2023/01/05 07:49:30;;;;;;;4.97;1.30;;;;;;;12.48;70.46;101095.31;4907715;28;97012;-51
2023/01/05 07:51:55;;;;;;;5.27;1.10;;;;;;;12.50;70.35;101103.84;4908439;28;97537;-51
2023/01/05 07:54:20;;;;;;;3.00;1.20;;;;;;;12.51;70.36;101105.38;4905741;28;97333;-52
2023/01/05 07:56:46;;;;;;;4.20;1.23;;;;;;;12.53;70.17;101119.41;4908038;28;97437;-52
2023/01/05 07:59:12;;;;;;;4.00;1.27;;;;;;;12.51;70.13;101124.69;4907782;28;96789;-52
2023/01/05 08:01:37;;;;;;;3.33;1.30;;;;;;;12.48;70.39;101124.91;4908507;28;97187;-52
2023/01/05 08:04:02;;;;;;;4.43;1.13;;;;;;;12.45;70.23;101143.19;4899872;28;97783;-52
2023/01/05 08:06:28;;;;;;;4.60;1.23;;;;;;;12.40;70.49;101137.66;4908167;28;97522;-54
2023/01/05 08:08:55;;;;;;;6.60;1.03;;;;;;;12.38;70.58;101145.66;4908002;28;96893;-52
2023/01/05 08:11:20;;;;;;;7.17;0.97;;;;;;;12.39;70.34;101145.16;4907055;28;97527;-52
2023/01/05 08:13:59;;;;;;;1.27;0.90;;;;;;;12.38;70.74;101154.72;4907889;28;97152;-52
2023/01/05 08:16:25;;;;;;;5.97;1.03;;;;;;;12.35;70.71;101150.16;4906742;28;101383;-52
2023/01/05 08:18:51;;;;;;;2.93;1.00;;;;;;;12.37;70.59;101155.94;4907032;28;97340;-53
2023/01/05 08:21:16;;;;;;;2.47;1.10;;;;;;;12.38;70.73;101148.44;4906684;28;97476;-52
2023/01/05 08:23:41;;;;;;;3.63;1.00;;;;;;;12.37;70.78;101146.91;4904606;28;97280;-52
2023/01/05 08:26:11;;;;;;;3.43;1.20;;;;;;;12.37;70.82;101158.69;4906136;28;97499;-52
2023/01/05 08:28:37;;;;;;;1.20;0.80;;;;;;;12.37;70.79;101164.22;4906303;28;97096;-53
2023/01/05 08:31:05;;;;;;;1.63;0.80;;;;;;;12.37;70.80;101183.53;4906442;28;97315;-52
2023/01/05 08:33:30;;;;;;;5.87;1.50;;;;;;;12.37;70.74;101172.50;4907139;28;104061;-53
2023/01/05 08:35:56;;;;;;;2.73;1.27;;;;;;;12.30;70.75;101167.44;4906639;28;97324;-52
2023/01/05 08:38:22;;;;;;;2.40;1.07;;;;;;;12.26;71.05;101180.69;4907401;28;97332;-53
2023/01/05 08:40:47;;;;;;;4.83;0.87;;;;;;;12.23;71.03;101180.94;4900926;28;102019;-53
2023/01/05 08:43:13;;;;;;;4.90;0.90;;;;;;;12.22;71.00;101187.69;4904690;28;96976;-53
2023/01/05 08:45:38;;;;;;;1.80;0.67;;;;;;;12.16;70.75;101184.13;4907531;28;98985;-52
2023/01/05 08:48:04;;;;;;;1.83;0.50;;;;;;;12.09;70.87;101190.09;4907948;28;97769;-52
2023/01/05 08:50:30;;;;;;;0.80;0.60;;;;;;;12.04;70.72;101197.84;4907555;28;97138;-52
2023/01/05 08:52:56;;;;;;;1.53;0.43;;;;;;;12.01;70.93;101223.63;4905812;28;97423;-52
2023/01/05 08:55:21;;;;;;;1.33;0.60;;;;;;;11.94;70.72;101213.06;4906253;28;97517;-52
2023/01/05 08:57:46;;;;;;;3.60;0.63;;;;;;;11.93;70.75;101225.31;4907069;28;103093;-52
2023/01/05 09:00:12;;;;;;;2.50;0.70;;;;;;;11.92;70.63;101234.84;4906144;28;96950;-52
2023/01/05 09:02:38;;;;;;;2.40;0.67;;;;;;;11.93;70.67;101244.63;4906000;28;98571;-53
2023/01/05 09:05:03;;;;;;;1.07;0.50;;;;;;;11.91;70.77;101236.06;4906146;28;97023;-52
2023/01/05 09:07:29;;;;;;;1.90;0.60;;;;;;;11.91;70.67;101249.09;4906769;28;96766;-52
2023/01/05 09:09:54;;;;;;;3.40;1.07;;;;;;;11.85;70.54;101242.78;4907143;28;96790;-52
2023/01/05 09:12:19;;;;;;;3.77;0.60;;;;;;;11.83;70.72;101239.75;4905225;28;98434;-52
2023/01/05 09:14:45;;;;;;;1.33;0.50;;;;;;;11.85;70.60;101246.28;4899489;28;97124;-53
2023/01/05 09:17:10;;;;;;;0.50;0.40;;;;;;;11.82;70.62;101263.78;4906978;28;99331;-51
2023/01/05 09:19:35;;;;;;;2.20;0.40;;;;;;;11.90;70.58;101266.91;4906272;28;97072;-54
2023/01/05 09:22:01;;;;;;;2.53;0.70;;;;;;;11.90;70.58;101264.13;4905890;28;97591;-51
2023/01/05 09:24:26;;;;;;;1.10;0.40;;;;;;;11.88;70.58;101267.38;4905366;28;97146;-51
2023/01/05 09:26:52;;;;;;;0.80;0.50;;;;;;;11.85;70.38;101278.63;4901594;28;96887;-52
2023/01/05 09:29:17;;;;;;;1.30;0.50;;;;;;;11.86;70.20;101278.13;4905305;28;97251;-51
2023/01/05 09:31:43;;;;;;;0.80;0.50;;;;;;;11.81;70.22;101287.13;4906479;28;97332;-52
2023/01/05 09:34:08;;;;;;;0.90;0.50;;;;;;;11.74;70.20;101284.78;4905659;28;97150;-52
2023/01/05 09:36:36;;;;;;;2.20;0.53;;;;;;;11.68;70.09;101299.72;4905266;28;97559;-53
2023/01/05 09:39:01;;;;;;;1.40;0.50;;;;;;;11.65;70.25;101303.41;4905537;28;97269;-52
2023/01/05 09:41:37;;;;;;;1.30;0.40;;;;;;;11.59;70.17;101308.13;4905077;28;97208;-51
2023/01/05 09:44:36;;;;;;;0.97;0.50;;;;;;;11.53;70.21;101308.03;4905319;28;100127;-51
2023/01/05 09:47:10;;;;;;;2.10;0.60;;;;;;;11.50;70.39;101308.25;4900332;28;97269;-51
2023/01/05 09:49:35;;;;;;;2.00;0.73;;;;;;;11.47;70.22;101312.72;4906643;28;97733;-51
2023/01/05 09:52:09;;;;;;;4.20;0.70;;;;;;;11.47;70.20;101323.75;4905914;28;96961;-51
2023/01/05 09:54:36;;;;;;;1.43;0.53;;;;;;;11.47;70.23;101323.75;4904641;28;97242;-51
2023/01/05 09:57:03;;;;;;;1.67;0.60;;;;;;;11.51;70.05;101323.56;4904736;28;97098;-55
2023/01/05 09:59:39;;;;;;;1.67;0.50;;;;;;;11.49;69.93;101326.03;4906307;28;97092;-51
2023/01/05 10:02:17;;;;;;;1.90;0.60;;;;;;;11.43;69.91;101328.72;4905194;28;97271;-51
2023/01/05 10:04:43;;;;;;;2.57;0.50;;;;;;;11.41;70.13;101336.69;4904580;28;97537;-53
2023/01/05 10:07:19;;;;;;;1.83;0.90;;;;;;;11.47;70.17;101334.75;4904587;28;97329;-51
2023/01/05 10:09:46;;;;;;;1.60;0.70;;;;;;;11.49;70.07;101337.78;4905157;28;97325;-51
2023/01/05 10:15:20;;;;;;;0.67;0.57;;;;;;;11.54;69.85;101345.38;4906089;28;101328;-52
2023/01/05 10:17:46;;;;;;;0.53;0.40;;;;;;;11.53;70.09;101346.59;4904545;28;96743;-53
2023/01/05 10:20:16;;;;;;;0.80;0.50;;;;;;;11.54;69.87;101350.91;4903897;28;96954;-50
2023/01/05 10:22:47;;;;;;;1.53;0.60;;;;;;;11.57;70.16;101349.94;4905802;28;97223;-51
2023/01/05 10:25:20;;;;;;;1.00;0.50;;;;;;;11.62;69.94;101345.75;4899418;28;101029;-52
2023/01/05 10:27:54;;;;;;;1.43;0.50;;;;;;;11.65;70.04;101362.06;4903733;28;97388;-52
2023/01/05 10:30:48;;;;;;;0.90;0.50;;;;;;;11.63;70.01;101361.78;4904825;28;99146;-51
2023/01/05 10:33:23;;;;;;;1.30;0.47;;;;;;;11.59;70.20;101366.00;4904837;28;103186;-50
2023/01/05 10:35:53;;;;;;;1.00;0.50;;;;;;;11.61;70.27;101369.78;4905708;28;100841;-51
2023/01/05 10:38:38;;;;;;;2.93;0.60;;;;;;;11.66;70.09;101374.63;4918425;28;97016;-51
2023/01/05 10:41:24;;;;;;;0.70;0.67;;;;;;;11.65;70.42;101375.84;4905973;28;97437;-53
2023/01/05 10:44:10;;;;;;;0.80;0.50;;;;;;;11.69;70.37;101384.69;4904176;28;96993;-52
2023/01/05 10:46:40;;;;;;;1.27;0.50;;;;;;;11.71;70.17;101398.75;4904692;28;101077;-55
2023/01/05 10:49:06;;;;;;;2.00;0.70;;;;;;;11.75;70.14;101399.28;4904330;28;97472;-51
2023/01/05 10:51:35;;;;;;;1.03;0.40;;;;;;;11.77;70.22;101402.31;4906645;28;97332;-52
2023/01/05 10:54:02;;;;;;;1.17;0.57;;;;;;;11.78;70.13;101390.06;4904647;28;97491;-51
2023/01/05 10:56:28;;;;;;;3.33;0.80;;;;;;;11.82;70.39;101393.38;4903212;28;97066;-52
2023/01/05 10:59:07;;;;;;;2.63;0.53;;;;;;;11.82;70.41;101396.13;4905423;28;97508;-51
2023/01/05 11:01:34;;;;;;;1.17;0.60;;;;;;;11.79;70.31;101394.34;4905572;28;97582;-54
2023/01/05 11:04:05;;;;;;;0.70;0.50;;;;;;;11.84;70.38;101396.41;4904819;28;96941;-53
2023/01/05 11:06:33;;;;;;;1.73;0.60;;;;;;;11.91;70.40;101406.25;4904743;28;97243;-51
2023/01/05 11:09:18;;;;;;;0.80;0.43;;;;;;;11.92;69.95;101407.78;4903828;28;97116;-53
2023/01/05 11:11:56;;;;;;;2.50;1.10;;;;;;;11.93;70.12;101412.81;4904826;28;96796;-51
2023/01/05 11:14:22;;;;;;;3.47;0.50;;;;;;;11.94;69.87;101408.06;4904014;28;100680;-50
2023/01/05 11:16:54;;;;;;;2.10;0.70;;;;;;;11.88;69.95;101419.00;4902810;28;96812;-51
2023/01/05 11:19:31;;;;;;;1.07;0.60;;;;;;;11.86;70.07;101418.75;4901945;28;97322;-56
2023/01/05 11:21:56;;;;;;;1.00;0.63;;;;;;;11.87;70.10;101434.06;4901019;28;96849;-52
2023/01/05 11:24:22;;;;;;;1.53;0.50;;;;;;;11.85;69.79;101430.25;4901494;28;97441;-51
2023/01/05 11:26:52;;;;;;;4.93;0.60;;;;;;;11.85;69.78;101436.53;4904529;28;97176;-53
2023/01/05 11:29:18;;;;;;;7.43;0.50;;;;;;;11.89;69.89;101430.81;4906969;28;97245;-51
2023/01/05 11:31:55;;;;;;;3.03;0.80;;;;;;;11.95;69.72;101432.38;4907894;28;97354;-53
2023/01/05 11:34:40;;;;;;;1.67;0.60;;;;;;;11.99;69.88;101443.97;4898053;28;97871;-51
2023/01/05 11:37:11;;;;;;;1.03;0.30;;;;;;;12.02;69.89;101436.75;4907040;28;97140;-51
2023/01/05 11:39:45;;;;;;;0.87;0.43;;;;;;;12.07;69.63;101438.03;4907336;28;97014;-52
2023/01/05 11:42:12;;;;;;;2.73;0.70;;;;;;;12.14;69.76;101443.16;4906847;28;96636;-54
2023/01/05 11:44:42;;;;;;;5.87;0.70;;;;;;;12.14;69.55;101449.44;4907764;28;97451;-52
2023/01/05 11:47:09;;;;;;;1.83;0.80;;;;;;;12.16;69.70;101452.47;4905325;28;97208;-51
2023/01/05 11:49:35;;;;;;;3.00;0.80;;;;;;;12.20;69.55;101447.50;4908120;28;97154;-53
2023/01/05 11:52:00;;;;;;;2.97;0.87;;;;;;;12.25;69.89;101449.56;4906863;28;96965;-52
2023/01/05 11:54:35;;;;;;;1.13;0.60;;;;;;;12.35;69.73;101455.69;4908231;28;97773;-51
2023/01/05 11:57:23;;;;;;;2.77;0.77;;;;;;;12.37;69.13;101458.72;4906342;28;102055;-51
2023/01/05 11:59:54;;;;;;;5.90;0.70;;;;;;;12.36;69.34;101462.72;4907367;28;97084;-52
2023/01/05 12:02:34;;;;;;;3.27;0.50;;;;;;;12.33;69.08;101456.16;4905015;28;97114;-51